| time (UTC) | temp F | wind direction | speed MPH | gust MPH | rain 1hr in | rain 24hr in | rain mn in | humidity % | barometer mb |
| 20260510200047 | 66 | 268 | 1.0 | 8.0 | 0.00 | 0.00 | 0.00 | 52 | 1020.2 |
| 20260510194537 | 64 | 284 | 5.0 | 10.0 | 0.00 | 0.00 | 0.00 | 50 | 1020.1 |
| 20260510193038 | 64 | 271 | 2.0 | 3.0 | 0.00 | 0.00 | 0.00 | 53 | 1020.1 |
| 20260510191542 | 62 | 279 | 2.0 | 6.0 | 0.00 | 0.00 | 0.00 | 60 | 1020.1 |
| 20260510190056 | 60 | 249 | 1.0 | 5.0 | 0.00 | 0.00 | 0.00 | 66 | 1020.3 |
| 20260510184540 | 59 | 315 | 7.0 | 12.0 | 0.00 | 0.00 | 0.00 | 67 | 1020.2 |
| 20260510183039 | 59 | 253 | 8.0 | 13.0 | 0.00 | 0.00 | 0.00 | 67 | 1020.3 |
| 20260510181548 | 60 | 267 | 5.0 | 11.0 | 0.00 | 0.00 | 0.00 | 67 | 1019.9 |
| 20260510180037 | 60 | 295 | 3.0 | 8.0 | 0.00 | 0.00 | 0.00 | 69 | 1019.7 |
| 20260510174554 | 60 | 269 | 4.0 | 8.0 | 0.00 | 0.00 | 0.00 | 70 | 1019.6 |
| 20260510173039 | 59 | 266 | 4.0 | 9.0 | 0.00 | 0.00 | 0.00 | 72 | 1019.8 |
| 20260510171556 | 59 | 269 | 4.0 | 8.0 | 0.00 | 0.00 | 0.00 | 73 | 1019.7 |
| 20260510170046 | 58 | 277 | 4.0 | 11.0 | 0.00 | 0.00 | 0.00 | 75 | 1019.7 |
| 20260510164541 | 56 | 266 | 3.0 | 10.0 | 0.00 | 0.00 | 0.00 | 77 | 1019.6 |
| 20260510163053 | 56 | 264 | 4.0 | 6.0 | 0.00 | 0.00 | 0.00 | 77 | 1019.6 |
| 20260510161542 | 56 | 280 | 3.0 | 5.0 | 0.00 | 0.00 | 0.00 | 77 | 1019.4 |
| 20260510160043 | 56 | 275 | 3.0 | 7.0 | 0.00 | 0.00 | 0.00 | 78 | 1019.3 |
| 20260510154541 | 55 | 278 | 3.0 | 10.0 | 0.00 | 0.00 | 0.00 | 79 | 1019.3 |
| 20260510153043 | 54 | 262 | 5.0 | 10.0 | 0.00 | 0.00 | 0.00 | 81 | 1019.2 |
| 20260510151538 | 53 | 268 | 4.0 | 11.0 | 0.00 | 0.00 | 0.00 | 82 | 1019.2 |
| 20260510150050 | 53 | 283 | 5.0 | 8.0 | 0.00 | 0.00 | 0.00 | 82 | 1019.1 |
| 20260510144545 | 53 | 248 | 4.0 | 9.0 | 0.00 | 0.00 | 0.00 | 83 | 1018.8 |
| 20260510143038 | 53 | 270 | 2.0 | 5.0 | 0.00 | 0.00 | 0.00 | 83 | 1018.8 |
| 20260510141541 | 52 | 267 | 3.0 | 12.0 | 0.00 | 0.00 | 0.00 | 84 | 1018.7 |
| 20260510140038 | 52 | 260 | 4.0 | 13.0 | 0.00 | 0.00 | 0.00 | 84 | 1018.6 |
| 20260510134545 | 52 | 281 | 5.0 | 12.0 | 0.00 | 0.00 | 0.00 | 85 | 1018.3 |
| 20260510133044 | 52 | 297 | 5.0 | 9.0 | 0.00 | 0.00 | 0.00 | 85 | 1018.1 |
| 20260510131544 | 52 | 278 | 6.0 | 13.0 | 0.00 | 0.00 | 0.00 | 85 | 1018.1 |
| 20260510130048 | 52 | 271 | 5.0 | 11.0 | 0.00 | 0.00 | 0.00 | 85 | 1018.0 |
| 20260510124547 | 52 | 264 | 4.0 | 12.0 | 0.00 | 0.00 | 0.00 | 85 | 1017.7 |
| 20260510123045 | 52 | 271 | 6.0 | 10.0 | 0.00 | 0.00 | 0.00 | 85 | 1017.9 |
| 20260510121544 | 52 | 279 | 4.0 | 11.0 | 0.00 | 0.00 | 0.00 | 85 | 1017.8 |
| 20260510120045 | 53 | 270 | 6.0 | 11.0 | 0.00 | 0.00 | 0.00 | 85 | 1018.2 |
| 20260510114546 | 53 | 276 | 5.0 | 10.0 | 0.00 | 0.00 | 0.00 | 85 | 1017.9 |
| 20260510113042 | 53 | 278 | 5.0 | 12.0 | 0.00 | 0.00 | 0.00 | 85 | 1018.0 |
| 20260510111545 | 53 | 271 | 6.0 | 11.0 | 0.00 | 0.00 | 0.00 | 85 | 1018.0 |
| 20260510110048 | 53 | 279 | 7.0 | 15.0 | 0.00 | 0.00 | 0.00 | 85 | 1018.0 |
| 20260510104547 | 53 | 283 | 7.0 | 14.0 | 0.00 | 0.00 | 0.00 | 85 | 1018.0 |
| 20260510103049 | 53 | 286 | 7.0 | 16.0 | 0.00 | 0.00 | 0.00 | 86 | 1017.7 |
| 20260510101556 | 52 | 266 | 7.0 | 17.0 | 0.00 | 0.00 | 0.00 | 86 | 1017.7 |
| 20260510100049 | 52 | 320 | 7.0 | 13.0 | 0.00 | 0.00 | 0.00 | 86 | 1017.6 |
| 20260510094548 | 52 | 283 | 6.0 | 14.0 | 0.00 | 0.00 | 0.00 | 86 | 1017.5 |
| 20260510093040 | 52 | 248 | 7.0 | 14.0 | 0.00 | 0.00 | 0.00 | 86 | 1017.4 |
| 20260510091545 | 53 | 271 | 7.0 | 12.0 | 0.00 | 0.00 | 0.00 | 85 | 1017.1 |
| 20260510090239 | 53 | 279 | 6.0 | 13.0 | 0.00 | 0.00 | 0.00 | 85 | 1017.3 |
| 20260510084552 | 53 | 259 | 7.0 | 19.0 | 0.00 | 0.00 | 0.00 | 85 | 1017.6 |
| 20260510083042 | 53 | 274 | 7.0 | 14.0 | 0.00 | 0.00 | 0.00 | 86 | 1017.5 |
| 20260510081543 | 53 | 317 | 8.0 | 15.0 | 0.00 | 0.00 | 0.00 | 87 | 1017.3 |
| 20260510080055 | 54 | 259 | 7.0 | 13.0 | 0.00 | 0.00 | 0.00 | 88 | 1017.2 |
| 20260510074547 | 54 | 277 | 7.0 | 11.0 | 0.00 | 0.00 | 0.00 | 88 | 1017.3 |
| 20260510073049 | 54 | 283 | 7.0 | 13.0 | 0.00 | 0.00 | 0.00 | 88 | 1017.2 |
| 20260510071549 | 54 | 281 | 6.0 | 13.0 | 0.00 | 0.00 | 0.00 | 88 | 1017.0 |
| 20260510070049 | 54 | 280 | 7.0 | 16.0 | 0.00 | 0.00 | 0.00 | 88 | 1017.0 |
| 20260510064544 | 54 | 278 | 8.0 | 13.0 | 0.00 | 0.00 | 0.00 | 88 | 1017.2 |
| 20260510063041 | 54 | 273 | 7.0 | 19.0 | 0.00 | 0.00 | 0.00 | 87 | 1017.2 |
| 20260510061537 | 54 | 306 | 8.0 | 14.0 | 0.00 | 0.00 | 0.00 | 87 | 1017.3 |
| 20260510060047 | 55 | 276 | 5.0 | 14.0 | 0.00 | 0.00 | 0.00 | 86 | 1017.2 |
| 20260510054542 | 55 | 261 | 7.0 | 20.0 | 0.00 | 0.00 | 0.00 | 86 | 1017.1 |
| 20260510053046 | 55 | 270 | 9.0 | 18.0 | 0.00 | 0.00 | 0.00 | 84 | 1017.1 |
| 20260510051543 | 57 | 272 | 7.0 | 15.0 | 0.00 | 0.00 | 0.00 | 81 | 1017.0 |
| 20260510050044 | 58 | 257 | 6.0 | 11.0 | 0.00 | 0.00 | 0.00 | 78 | 1016.6 |
| 20260510044537 | 59 | 272 | 7.0 | 12.0 | 0.00 | 0.00 | 0.00 | 75 | 1016.3 |
| 20260510043040 | 61 | 280 | 5.0 | 14.0 | 0.00 | 0.00 | 0.00 | 72 | 1016.3 |
| 20260510041543 | 61 | 261 | 4.0 | 9.0 | 0.00 | 0.00 | 0.00 | 71 | 1016.1 |
| 20260510040043 | 62 | 262 | 5.0 | 11.0 | 0.00 | 0.00 | 0.00 | 69 | 1015.9 |
| 20260510034541 | 62 | 281 | 4.0 | 14.0 | 0.00 | 0.00 | 0.00 | 68 | 1015.7 |
| 20260510033052 | 63 | 266 | 6.0 | 11.0 | 0.00 | 0.00 | 0.00 | 66 | 1015.6 |
| 20260510031539 | 64 | 269 | 4.0 | 11.0 | 0.00 | 0.00 | 0.00 | 65 | 1015.6 |
| 20260510030045 | 65 | 278 | 6.0 | 10.0 | 0.00 | 0.00 | 0.00 | 63 | 1015.5 |
| 20260510024542 | 65 | 269 | 5.0 | 15.0 | 0.00 | 0.00 | 0.00 | 62 | 1015.5 |
| 20260510023039 | 66 | 282 | 6.0 | 11.0 | 0.00 | 0.00 | 0.00 | 60 | 1015.4 |
| 20260510021625 | 67 | 259 | 5.0 | 11.0 | 0.00 | 0.00 | 0.00 | 59 | 1015.2 |
| 20260510020038 | 67 | 283 | 8.0 | 14.0 | 0.00 | 0.00 | 0.00 | 58 | 1015.2 |
| 20260510014552 | 68 | 281 | 7.0 | 13.0 | 0.00 | 0.00 | 0.00 | 57 | 1015.2 |
| 20260510013056 | 70 | 278 | 6.0 | 15.0 | 0.00 | 0.00 | 0.00 | 55 | 1015.3 |
| 20260510011538 | 72 | 266 | 6.0 | 15.0 | 0.00 | 0.00 | 0.00 | 51 | 1015.3 |
| 20260510010050 | 73 | 257 | 5.0 | 14.0 | 0.00 | 0.00 | 0.00 | 48 | 1015.3 |
| 20260510004538 | 75 | 268 | 6.0 | 10.0 | 0.00 | 0.00 | 0.00 | 47 | 1015.2 |
| 20260510003047 | 78 | 265 | 2.0 | 4.0 | 0.00 | 0.00 | 0.00 | 45 | 1015.2 |
| 20260510001545 | 77 | 133 | 0.0 | 3.0 | 0.00 | 0.00 | 0.00 | 38 | 1015.3 |
| 20260510000044 | 78 | 109 | 0.0 | 3.0 | 0.00 | 0.00 | 0.00 | 38 | 1015.4 |
| 20260509234542 | 78 | 0 | 0.0 | 3.0 | 0.00 | 0.00 | 0.00 | 39 | 1015.6 |
| 20260509233041 | 78 | 0 | 0.0 | 2.0 | 0.00 | 0.00 | 0.00 | 37 | 1015.6 |
| 20260509231543 | 78 | 89 | 0.0 | 2.0 | 0.00 | 0.00 | 0.00 | 36 | 1015.8 |
| 20260509230046 | 78 | 169 | 0.0 | 3.0 | 0.00 | 0.00 | 0.00 | 36 | 1016.0 |
| 20260509224544 | 79 | 110 | 0.0 | 1.0 | 0.00 | 0.00 | 0.00 | 36 | 1016.1 |
| 20260509223044 | 79 | 9 | 0.0 | 2.0 | 0.00 | 0.00 | 0.00 | 35 | 1016.3 |
| 20260509221544 | 78 | 0 | 0.0 | 2.0 | 0.00 | 0.00 | 0.00 | 33 | 1016.5 |
| 20260509220043 | 78 | 0 | 0.0 | 2.0 | 0.00 | 0.00 | 0.00 | 34 | 1016.7 |
| 20260509214542 | 78 | 49 | 0.0 | 2.0 | 0.00 | 0.00 | 0.00 | 33 | 1017.2 |
| 20260509213038 | 76 | 278 | 1.0 | 2.0 | 0.00 | 0.00 | 0.00 | 34 | 1017.6 |
| 20260509211549 | 76 | 0 | 0.0 | 1.0 | 0.00 | 0.00 | 0.00 | 36 | 1017.8 |
| 20260509210049 | 75 | 0 | 0.0 | 3.0 | 0.00 | 0.00 | 0.00 | 41 | 1018.0 |
| 20260509204544 | 75 | 0 | 0.0 | 1.0 | 0.00 | 0.00 | 0.00 | 39 | 1018.0 |
| 20260509203041 | 75 | 0 | 0.0 | 3.0 | 0.00 | 0.00 | 0.00 | 40 | 1018.3 |
| 20260509201541 | 73 | 0 | 0.0 | 3.0 | 0.00 | 0.00 | 0.00 | 44 | 1018.4 |